首页
METAR-TAF:

METAR-TAF

机场 :

哥伦布, 密西西比州, 美国

纬度: 33-39N, 经度: 088-27W, 海拔: 67米

当前天气观测

该预报发布于57分钟前的17:56 UTC
风速15节,风向,有时为19节阵风
温度 28°C
湿度 58%
气压 1012 hPa
能見度: 16.1公里
少量云层高于3000英尺

METAR: KCBM 281756Z 19015G19KT 10SM FEW030 28/19 A2988 RMK AO2A SLP119 T02810193 10287 20191 57015 $

时间: 13:53 (18:53 UTC)

预报

该预报发布于1小时和53分钟前的17:00 UTC
预报有效从28日的 17点(UTC)到 29日的 23点(UTC)
风速12节,风向南转西南,有时为20节阵风
能见度10公里或以上
散云层高于2500英尺
成为
从 28日的 22点(UTC)到 28日的 23点(UTC)
风速6节,风向
能见度10公里或以上
散云层高于4500英尺
成为
从 29日的 06点(UTC)到 29日的 07点(UTC)
风速12节,风向
能見度: 9000
多云层高于1500英尺
小阵雨
短暂存在
从 29日的 07点(UTC)到 29日的 09点(UTC)
风速25节,风向多变,有时为35节阵风
能見度: 8000
阴天层高于1500英尺, 积雨云.
雷暴, 小雨
成为
从 29日的 09点(UTC)到 29日的 10点(UTC)
风速9节,风向西
能見度: 9000
多云层高于2500英尺
阵雨
成为
从 29日的 12点(UTC)到 29日的 13点(UTC)
风速6节,风向多变
能见度10公里或以上
散云层高于6000英尺
成为
从 29日的 17点(UTC)到 29日的 18点(UTC)
风速10节,风向西,有时为15节阵风
能见度10公里或以上
少量云层高于30000英尺

TAF: KCBM 281700Z 2817/2923 21012G20KT 9999 SCT025 QNH2988INS BECMG 2822/2823 19006KT 9999 SCT045 QNH2978INS BECMG 2906/2907 19012KT 9000 -SHRA BKN015 QNH2981INS TEMPO 2907/2909 VRB25G35KT 8000 -TSRA OVC015CB BECMG 2909/2910 28009KT 9000 SHRA BKN025 QNH2990INS BECMG 2912/2913 VRB06KT 9999 NSW SCT060 QNH3001INS BECMG 2917/2918 28010G15KT 9999 FEW300 QNH3007INS TX28/2820Z TN17/2911Z

超过4000个机场的气象观测和天气预报(METAR&TAF报告)。

可查询的气象台以黄色和红色小点在地图上表示。

将鼠标移到小点上方,可查看气象台名称。

然后点击查看天气观测和预报。

如需切换地图:点击带黑十字的绿色按钮放大地图;点击带横线的绿色按钮缩小地图;或者点击绿色箭头查看邻近地区的地图。


METAR-TAF: